sensor_id;sensor_type;location;lat;lon;timestamp;P1;durP1;ratioP1;P2;durP2;ratioP2
5026;SDS011;2532;52.480;13.354;2023-03-11T00:01:22;19.77;;;11.63;;
5026;SDS011;2532;52.480;13.354;2023-03-11T00:03:50;21.90;;;11.87;;
5026;SDS011;2532;52.480;13.354;2023-03-11T00:06:17;23.70;;;13.03;;
5026;SDS011;2532;52.480;13.354;2023-03-11T00:08:46;17.73;;;11.03;;
5026;SDS011;2532;52.480;13.354;2023-03-11T00:11:16;19.50;;;11.07;;
5026;SDS011;2532;52.480;13.354;2023-03-11T00:13:47;20.17;;;11.67;;
5026;SDS011;2532;52.480;13.354;2023-03-11T00:16:15;19.70;;;12.00;;
5026;SDS011;2532;52.480;13.354;2023-03-11T00:18:43;18.30;;;10.33;;
5026;SDS011;2532;52.480;13.354;2023-03-11T00:21:13;21.97;;;12.67;;
5026;SDS011;2532;52.480;13.354;2023-03-11T00:23:41;22.37;;;12.80;;
5026;SDS011;2532;52.480;13.354;2023-03-11T00:26:10;20.23;;;12.13;;
5026;SDS011;2532;52.480;13.354;2023-03-11T00:28:40;20.90;;;11.00;;
5026;SDS011;2532;52.480;13.354;2023-03-11T00:31:09;18.60;;;11.90;;
5026;SDS011;2532;52.480;13.354;2023-03-11T00:33:37;17.60;;;10.47;;
5026;SDS011;2532;52.480;13.354;2023-03-11T00:36:13;19.30;;;11.90;;
5026;SDS011;2532;52.480;13.354;2023-03-11T00:38:48;18.10;;;10.97;;
5026;SDS011;2532;52.480;13.354;2023-03-11T00:41:15;18.43;;;11.30;;
5026;SDS011;2532;52.480;13.354;2023-03-11T00:43:45;17.80;;;11.33;;
5026;SDS011;2532;52.480;13.354;2023-03-11T00:46:18;23.67;;;11.80;;
5026;SDS011;2532;52.480;13.354;2023-03-11T00:48:45;21.17;;;11.90;;
5026;SDS011;2532;52.480;13.354;2023-03-11T00:51:15;17.10;;;11.23;;
5026;SDS011;2532;52.480;13.354;2023-03-11T00:53:42;21.20;;;11.47;;
5026;SDS011;2532;52.480;13.354;2023-03-11T00:56:11;21.60;;;12.30;;
5026;SDS011;2532;52.480;13.354;2023-03-11T00:58:42;23.10;;;13.63;;
5026;SDS011;2532;52.480;13.354;2023-03-11T01:01:10;23.57;;;13.57;;
5026;SDS011;2532;52.480;13.354;2023-03-11T01:03:40;23.00;;;13.70;;
5026;SDS011;2532;52.480;13.354;2023-03-11T01:06:07;25.60;;;14.53;;
5026;SDS011;2532;52.480;13.354;2023-03-11T01:08:35;21.97;;;14.97;;
5026;SDS011;2532;52.480;13.354;2023-03-11T01:11:02;27.30;;;13.53;;
5026;SDS011;2532;52.480;13.354;2023-03-11T01:13:30;24.57;;;14.20;;
5026;SDS011;2532;52.480;13.354;2023-03-11T01:15:58;21.13;;;13.50;;
5026;SDS011;2532;52.480;13.354;2023-03-11T01:18:25;27.70;;;15.50;;
5026;SDS011;2532;52.480;13.354;2023-03-11T01:20:54;24.63;;;13.23;;
5026;SDS011;2532;52.480;13.354;2023-03-11T01:23:24;28.83;;;18.80;;
5026;SDS011;2532;52.480;13.354;2023-03-11T01:25:51;31.10;;;14.77;;
5026;SDS011;2532;52.480;13.354;2023-03-11T01:28:18;26.10;;;16.00;;
5026;SDS011;2532;52.480;13.354;2023-03-11T01:30:45;24.07;;;14.90;;
5026;SDS011;2532;52.480;13.354;2023-03-11T01:33:13;20.10;;;12.57;;
5026;SDS011;2532;52.480;13.354;2023-03-11T01:35:44;23.87;;;13.37;;
5026;SDS011;2532;52.480;13.354;2023-03-11T01:38:14;20.37;;;12.13;;
5026;SDS011;2532;52.480;13.354;2023-03-11T01:40:43;19.73;;;12.47;;
5026;SDS011;2532;52.480;13.354;2023-03-11T01:46:06;15.50;;;11.07;;
5026;SDS011;2532;52.480;13.354;2023-03-11T01:48:38;16.60;;;9.83;;
5026;SDS011;2532;52.480;13.354;2023-03-11T01:51:06;15.27;;;10.03;;
5026;SDS011;2532;52.480;13.354;2023-03-11T01:53:37;13.47;;;8.73;;
5026;SDS011;2532;52.480;13.354;2023-03-11T01:56:05;12.50;;;7.43;;
5026;SDS011;2532;52.480;13.354;2023-03-11T01:58:33;9.80;;;7.00;;
5026;SDS011;2532;52.480;13.354;2023-03-11T02:01:03;9.27;;;6.15;;
5026;SDS011;2532;52.480;13.354;2023-03-11T02:03:32;11.33;;;6.97;;
5026;SDS011;2532;52.480;13.354;2023-03-11T02:06:02;8.20;;;5.93;;
5026;SDS011;2532;52.480;13.354;2023-03-11T02:08:32;6.70;;;5.27;;
5026;SDS011;2532;52.480;13.354;2023-03-11T02:11:01;6.80;;;4.83;;
5026;SDS011;2532;52.480;13.354;2023-03-11T02:13:31;6.07;;;4.20;;
5026;SDS011;2532;52.480;13.354;2023-03-11T02:16:00;6.30;;;4.70;;
5026;SDS011;2532;52.480;13.354;2023-03-11T02:18:27;5.53;;;4.60;;
5026;SDS011;2532;52.480;13.354;2023-03-11T02:20:56;5.77;;;4.40;;
5026;SDS011;2532;52.480;13.354;2023-03-11T02:23:33;5.23;;;4.43;;
5026;SDS011;2532;52.480;13.354;2023-03-11T02:26:12;6.70;;;4.37;;
5026;SDS011;2532;52.480;13.354;2023-03-11T02:28:45;4.43;;;3.53;;
5026;SDS011;2532;52.480;13.354;2023-03-11T02:31:13;4.97;;;3.93;;
5026;SDS011;2532;52.480;13.354;2023-03-11T02:33:41;4.40;;;3.90;;
5026;SDS011;2532;52.480;13.354;2023-03-11T02:38:56;4.63;;;4.13;;
5026;SDS011;2532;52.480;13.354;2023-03-11T02:41:23;4.57;;;4.03;;
5026;SDS011;2532;52.480;13.354;2023-03-11T02:43:52;4.80;;;4.13;;
5026;SDS011;2532;52.480;13.354;2023-03-11T02:46:19;4.17;;;3.77;;
5026;SDS011;2532;52.480;13.354;2023-03-11T02:48:46;5.83;;;4.60;;
5026;SDS011;2532;52.480;13.354;2023-03-11T02:51:14;4.90;;;3.90;;
5026;SDS011;2532;52.480;13.354;2023-03-11T02:53:45;5.80;;;4.77;;
5026;SDS011;2532;52.480;13.354;2023-03-11T02:56:15;5.30;;;4.20;;
5026;SDS011;2532;52.480;13.354;2023-03-11T02:58:43;6.37;;;4.33;;
5026;SDS011;2532;52.480;13.354;2023-03-11T03:01:11;5.17;;;4.57;;
5026;SDS011;2532;52.480;13.354;2023-03-11T03:03:38;6.00;;;4.63;;
5026;SDS011;2532;52.480;13.354;2023-03-11T03:06:05;4.50;;;4.00;;
5026;SDS011;2532;52.480;13.354;2023-03-11T03:08:32;7.00;;;5.60;;
5026;SDS011;2532;52.480;13.354;2023-03-11T03:10:59;6.07;;;4.20;;
5026;SDS011;2532;52.480;13.354;2023-03-11T03:13:27;6.27;;;4.97;;
5026;SDS011;2532;52.480;13.354;2023-03-11T03:15:55;5.37;;;4.67;;
5026;SDS011;2532;52.480;13.354;2023-03-11T03:18:23;9.83;;;5.53;;
5026;SDS011;2532;52.480;13.354;2023-03-11T03:20:51;5.27;;;4.60;;
5026;SDS011;2532;52.480;13.354;2023-03-11T03:23:18;5.30;;;4.10;;
5026;SDS011;2532;52.480;13.354;2023-03-11T03:25:45;6.60;;;4.97;;
5026;SDS011;2532;52.480;13.354;2023-03-11T03:28:12;7.23;;;4.73;;
5026;SDS011;2532;52.480;13.354;2023-03-11T03:30:40;5.80;;;4.20;;
5026;SDS011;2532;52.480;13.354;2023-03-11T03:33:07;5.77;;;4.73;;
5026;SDS011;2532;52.480;13.354;2023-03-11T03:35:39;5.27;;;4.27;;
5026;SDS011;2532;52.480;13.354;2023-03-11T03:38:06;6.53;;;4.63;;
5026;SDS011;2532;52.480;13.354;2023-03-11T03:40:34;7.10;;;5.37;;
5026;SDS011;2532;52.480;13.354;2023-03-11T03:43:01;6.13;;;4.50;;
5026;SDS011;2532;52.480;13.354;2023-03-11T03:45:28;7.20;;;5.57;;
5026;SDS011;2532;52.480;13.354;2023-03-11T03:47:55;6.07;;;4.20;;
5026;SDS011;2532;52.480;13.354;2023-03-11T03:50:22;6.73;;;5.03;;
5026;SDS011;2532;52.480;13.354;2023-03-11T03:52:51;5.90;;;4.80;;
5026;SDS011;2532;52.480;13.354;2023-03-11T03:55:18;7.17;;;5.43;;
5026;SDS011;2532;52.480;13.354;2023-03-11T03:57:45;6.87;;;5.60;;
5026;SDS011;2532;52.480;13.354;2023-03-11T04:00:15;10.10;;;7.80;;
5026;SDS011;2532;52.480;13.354;2023-03-11T04:02:43;9.20;;;5.30;;
5026;SDS011;2532;52.480;13.354;2023-03-11T04:05:09;6.40;;;4.97;;
5026;SDS011;2532;52.480;13.354;2023-03-11T04:07:36;8.20;;;5.80;;
5026;SDS011;2532;52.480;13.354;2023-03-11T04:10:05;6.63;;;5.07;;
5026;SDS011;2532;52.480;13.354;2023-03-11T04:12:33;8.20;;;5.87;;
5026;SDS011;2532;52.480;13.354;2023-03-11T04:14:59;6.87;;;5.20;;
5026;SDS011;2532;52.480;13.354;2023-03-11T04:17:26;8.07;;;5.90;;
5026;SDS011;2532;52.480;13.354;2023-03-11T04:19:53;6.00;;;4.73;;
5026;SDS011;2532;52.480;13.354;2023-03-11T04:22:20;22.13;;;12.50;;
5026;SDS011;2532;52.480;13.354;2023-03-11T04:24:47;8.33;;;6.30;;
5026;SDS011;2532;52.480;13.354;2023-03-11T04:27:15;7.63;;;5.83;;
5026;SDS011;2532;52.480;13.354;2023-03-11T04:29:42;7.10;;;5.43;;
5026;SDS011;2532;52.480;13.354;2023-03-11T04:32:11;9.00;;;6.27;;
5026;SDS011;2532;52.480;13.354;2023-03-11T04:34:38;7.77;;;5.13;;
5026;SDS011;2532;52.480;13.354;2023-03-11T04:37:06;8.30;;;6.60;;
5026;SDS011;2532;52.480;13.354;2023-03-11T04:39:32;7.40;;;5.50;;
5026;SDS011;2532;52.480;13.354;2023-03-11T04:41:59;6.70;;;5.30;;
5026;SDS011;2532;52.480;13.354;2023-03-11T04:44:28;6.90;;;5.30;;
5026;SDS011;2532;52.480;13.354;2023-03-11T04:46:55;5.77;;;4.53;;
5026;SDS011;2532;52.480;13.354;2023-03-11T04:49:21;6.90;;;5.57;;
5026;SDS011;2532;52.480;13.354;2023-03-11T04:51:48;5.73;;;5.17;;
5026;SDS011;2532;52.480;13.354;2023-03-11T04:54:15;6.50;;;4.10;;
5026;SDS011;2532;52.480;13.354;2023-03-11T04:56:42;5.67;;;4.67;;
5026;SDS011;2532;52.480;13.354;2023-03-11T04:59:09;4.60;;;4.10;;
5026;SDS011;2532;52.480;13.354;2023-03-11T05:01:37;6.27;;;4.80;;
5026;SDS011;2532;52.480;13.354;2023-03-11T05:04:04;4.30;;;3.80;;
5026;SDS011;2532;52.480;13.354;2023-03-11T05:06:31;5.93;;;4.33;;
5026;SDS011;2532;52.480;13.354;2023-03-11T05:08:58;4.47;;;3.70;;
5026;SDS011;2532;52.480;13.354;2023-03-11T05:11:25;5.80;;;4.03;;
5026;SDS011;2532;52.480;13.354;2023-03-11T05:13:51;4.50;;;3.73;;
5026;SDS011;2532;52.480;13.354;2023-03-11T05:16:18;6.40;;;4.63;;
5026;SDS011;2532;52.480;13.354;2023-03-11T05:18:47;7.13;;;4.37;;
5026;SDS011;2532;52.480;13.354;2023-03-11T05:21:13;6.43;;;4.37;;
5026;SDS011;2532;52.480;13.354;2023-03-11T05:23:43;5.83;;;4.90;;
5026;SDS011;2532;52.480;13.354;2023-03-11T05:26:10;6.00;;;4.40;;
5026;SDS011;2532;52.480;13.354;2023-03-11T05:28:37;5.20;;;4.57;;
5026;SDS011;2532;52.480;13.354;2023-03-11T05:31:06;4.30;;;3.90;;
5026;SDS011;2532;52.480;13.354;2023-03-11T05:33:34;5.47;;;4.60;;
5026;SDS011;2532;52.480;13.354;2023-03-11T05:36:06;5.63;;;4.50;;
5026;SDS011;2532;52.480;13.354;2023-03-11T05:38:34;6.27;;;4.47;;
5026;SDS011;2532;52.480;13.354;2023-03-11T05:41:01;5.97;;;4.93;;
5026;SDS011;2532;52.480;13.354;2023-03-11T05:43:28;6.23;;;4.87;;
5026;SDS011;2532;52.480;13.354;2023-03-11T05:45:55;9.50;;;5.83;;
5026;SDS011;2532;52.480;13.354;2023-03-11T05:48:22;7.03;;;4.57;;
5026;SDS011;2532;52.480;13.354;2023-03-11T05:50:49;5.50;;;3.80;;
5026;SDS011;2532;52.480;13.354;2023-03-11T05:53:17;5.70;;;4.70;;
5026;SDS011;2532;52.480;13.354;2023-03-11T05:55:44;6.43;;;4.30;;
5026;SDS011;2532;52.480;13.354;2023-03-11T05:58:20;8.30;;;5.30;;
5026;SDS011;2532;52.480;13.354;2023-03-11T06:00:47;6.33;;;4.97;;
5026;SDS011;2532;52.480;13.354;2023-03-11T06:03:14;7.23;;;4.33;;
5026;SDS011;2532;52.480;13.354;2023-03-11T06:05:43;6.00;;;5.20;;
5026;SDS011;2532;52.480;13.354;2023-03-11T06:08:10;9.17;;;5.93;;
5026;SDS011;2532;52.480;13.354;2023-03-11T06:10:38;5.50;;;4.63;;
5026;SDS011;2532;52.480;13.354;2023-03-11T06:13:05;10.10;;;5.00;;
5026;SDS011;2532;52.480;13.354;2023-03-11T06:15:33;6.70;;;5.17;;
5026;SDS011;2532;52.480;13.354;2023-03-11T06:18:00;9.00;;;5.10;;
5026;SDS011;2532;52.480;13.354;2023-03-11T06:20:27;6.07;;;4.60;;
5026;SDS011;2532;52.480;13.354;2023-03-11T06:22:54;10.83;;;5.87;;
5026;SDS011;2532;52.480;13.354;2023-03-11T06:25:21;7.70;;;6.13;;
5026;SDS011;2532;52.480;13.354;2023-03-11T06:27:49;8.27;;;5.53;;
5026;SDS011;2532;52.480;13.354;2023-03-11T06:30:18;8.93;;;5.00;;
5026;SDS011;2532;52.480;13.354;2023-03-11T06:32:45;8.73;;;6.27;;
5026;SDS011;2532;52.480;13.354;2023-03-11T06:35:13;6.50;;;5.30;;
5026;SDS011;2532;52.480;13.354;2023-03-11T06:37:39;7.33;;;6.00;;
5026;SDS011;2532;52.480;13.354;2023-03-11T06:40:08;10.30;;;6.30;;
5026;SDS011;2532;52.480;13.354;2023-03-11T06:42:35;9.47;;;5.70;;
5026;SDS011;2532;52.480;13.354;2023-03-11T06:45:04;9.80;;;6.50;;
5026;SDS011;2532;52.480;13.354;2023-03-11T06:47:32;8.10;;;5.57;;
5026;SDS011;2532;52.480;13.354;2023-03-11T06:49:59;8.53;;;5.63;;
5026;SDS011;2532;52.480;13.354;2023-03-11T06:52:30;8.40;;;5.50;;
5026;SDS011;2532;52.480;13.354;2023-03-11T06:54:57;7.40;;;6.00;;
5026;SDS011;2532;52.480;13.354;2023-03-11T06:57:24;10.43;;;5.80;;
5026;SDS011;2532;52.480;13.354;2023-03-11T06:59:50;9.00;;;5.50;;
5026;SDS011;2532;52.480;13.354;2023-03-11T07:02:19;9.00;;;6.90;;
5026;SDS011;2532;52.480;13.354;2023-03-11T07:04:47;9.10;;;6.03;;
5026;SDS011;2532;52.480;13.354;2023-03-11T07:07:14;6.93;;;5.63;;
5026;SDS011;2532;52.480;13.354;2023-03-11T07:09:41;8.13;;;6.40;;
5026;SDS011;2532;52.480;13.354;2023-03-11T07:12:08;8.10;;;5.93;;
5026;SDS011;2532;52.480;13.354;2023-03-11T07:14:35;8.07;;;5.47;;
5026;SDS011;2532;52.480;13.354;2023-03-11T07:17:02;8.83;;;6.43;;
5026;SDS011;2532;52.480;13.354;2023-03-11T07:19:30;10.60;;;6.03;;
5026;SDS011;2532;52.480;13.354;2023-03-11T07:21:57;7.80;;;5.67;;
5026;SDS011;2532;52.480;13.354;2023-03-11T07:24:24;11.00;;;7.17;;
5026;SDS011;2532;52.480;13.354;2023-03-11T07:26:51;9.57;;;5.70;;
5026;SDS011;2532;52.480;13.354;2023-03-11T07:29:18;9.80;;;4.97;;
5026;SDS011;2532;52.480;13.354;2023-03-11T07:31:53;8.67;;;6.60;;
5026;SDS011;2532;52.480;13.354;2023-03-11T07:34:44;10.73;;;6.20;;
5026;SDS011;2532;52.480;13.354;2023-03-11T07:37:11;7.97;;;6.70;;
5026;SDS011;2532;52.480;13.354;2023-03-11T07:39:38;12.40;;;6.67;;
5026;SDS011;2532;52.480;13.354;2023-03-11T07:42:05;10.07;;;6.40;;
5026;SDS011;2532;52.480;13.354;2023-03-11T07:44:32;10.13;;;6.60;;
5026;SDS011;2532;52.480;13.354;2023-03-11T07:47:00;8.80;;;6.00;;
5026;SDS011;2532;52.480;13.354;2023-03-11T07:49:28;11.30;;;6.97;;
5026;SDS011;2532;52.480;13.354;2023-03-11T07:51:56;14.20;;;8.20;;
5026;SDS011;2532;52.480;13.354;2023-03-11T07:54:23;11.67;;;6.20;;
5026;SDS011;2532;52.480;13.354;2023-03-11T07:56:50;10.77;;;6.83;;
5026;SDS011;2532;52.480;13.354;2023-03-11T07:59:17;11.97;;;6.20;;
5026;SDS011;2532;52.480;13.354;2023-03-11T08:01:44;9.67;;;6.47;;
5026;SDS011;2532;52.480;13.354;2023-03-11T08:04:11;7.13;;;6.30;;
5026;SDS011;2532;52.480;13.354;2023-03-11T08:06:41;10.43;;;7.10;;
5026;SDS011;2532;52.480;13.354;2023-03-11T08:09:11;7.47;;;5.57;;
5026;SDS011;2532;52.480;13.354;2023-03-11T08:11:38;8.60;;;6.10;;
5026;SDS011;2532;52.480;13.354;2023-03-11T08:14:06;10.67;;;5.80;;
5026;SDS011;2532;52.480;13.354;2023-03-11T08:16:33;9.03;;;6.70;;
5026;SDS011;2532;52.480;13.354;2023-03-11T08:19:00;9.40;;;6.30;;
5026;SDS011;2532;52.480;13.354;2023-03-11T08:21:28;9.33;;;5.80;;
5026;SDS011;2532;52.480;13.354;2023-03-11T08:23:56;9.20;;;5.30;;
5026;SDS011;2532;52.480;13.354;2023-03-11T08:26:26;7.90;;;6.20;;
5026;SDS011;2532;52.480;13.354;2023-03-11T08:28:54;9.90;;;6.30;;
5026;SDS011;2532;52.480;13.354;2023-03-11T08:31:23;9.10;;;6.53;;
5026;SDS011;2532;52.480;13.354;2023-03-11T08:33:54;9.60;;;6.30;;
5026;SDS011;2532;52.480;13.354;2023-03-11T08:36:22;9.93;;;6.80;;
5026;SDS011;2532;52.480;13.354;2023-03-11T08:38:49;6.53;;;5.00;;
5026;SDS011;2532;52.480;13.354;2023-03-11T08:41:16;7.87;;;5.67;;
5026;SDS011;2532;52.480;13.354;2023-03-11T08:43:45;9.37;;;6.40;;
5026;SDS011;2532;52.480;13.354;2023-03-11T08:46:13;9.77;;;6.50;;
5026;SDS011;2532;52.480;13.354;2023-03-11T08:48:44;12.17;;;6.70;;
5026;SDS011;2532;52.480;13.354;2023-03-11T08:51:11;9.57;;;6.30;;
5026;SDS011;2532;52.480;13.354;2023-03-11T08:53:39;12.40;;;6.37;;
5026;SDS011;2532;52.480;13.354;2023-03-11T08:56:06;6.60;;;5.77;;
5026;SDS011;2532;52.480;13.354;2023-03-11T08:58:33;11.40;;;6.90;;
5026;SDS011;2532;52.480;13.354;2023-03-11T09:01:02;10.97;;;6.93;;
5026;SDS011;2532;52.480;13.354;2023-03-11T09:03:29;13.23;;;8.37;;
5026;SDS011;2532;52.480;13.354;2023-03-11T09:05:57;8.50;;;6.00;;
5026;SDS011;2532;52.480;13.354;2023-03-11T09:08:25;11.53;;;6.73;;
5026;SDS011;2532;52.480;13.354;2023-03-11T09:10:52;8.13;;;5.50;;
5026;SDS011;2532;52.480;13.354;2023-03-11T09:13:19;10.73;;;6.07;;
5026;SDS011;2532;52.480;13.354;2023-03-11T09:15:47;10.80;;;6.23;;
5026;SDS011;2532;52.480;13.354;2023-03-11T09:18:16;10.53;;;7.50;;
5026;SDS011;2532;52.480;13.354;2023-03-11T09:20:43;9.23;;;7.17;;
5026;SDS011;2532;52.480;13.354;2023-03-11T09:23:12;11.27;;;6.90;;
5026;SDS011;2532;52.480;13.354;2023-03-11T09:25:40;9.83;;;5.93;;
5026;SDS011;2532;52.480;13.354;2023-03-11T09:28:08;8.43;;;6.73;;
5026;SDS011;2532;52.480;13.354;2023-03-11T09:30:35;8.63;;;6.37;;
5026;SDS011;2532;52.480;13.354;2023-03-11T09:33:02;11.27;;;8.23;;
5026;SDS011;2532;52.480;13.354;2023-03-11T09:35:30;9.07;;;6.33;;
5026;SDS011;2532;52.480;13.354;2023-03-11T09:41:25;9.00;;;6.00;;
5026;SDS011;2532;52.480;13.354;2023-03-11T09:44:00;8.50;;;6.10;;
5026;SDS011;2532;52.480;13.354;2023-03-11T09:46:44;8.43;;;6.43;;
5026;SDS011;2532;52.480;13.354;2023-03-11T09:49:37;10.70;;;6.63;;
5026;SDS011;2532;52.480;13.354;2023-03-11T09:52:15;8.20;;;6.07;;
5026;SDS011;2532;52.480;13.354;2023-03-11T09:54:49;7.40;;;6.23;;
5026;SDS011;2532;52.480;13.354;2023-03-11T09:57:20;7.10;;;5.87;;
5026;SDS011;2532;52.480;13.354;2023-03-11T09:59:50;8.00;;;6.27;;
5026;SDS011;2532;52.480;13.354;2023-03-11T10:02:18;10.00;;;5.57;;
5026;SDS011;2532;52.480;13.354;2023-03-11T10:04:49;9.27;;;5.60;;
5026;SDS011;2532;52.480;13.354;2023-03-11T10:07:24;8.60;;;6.07;;
5026;SDS011;2532;52.480;13.354;2023-03-11T10:09:57;7.50;;;5.73;;
5026;SDS011;2532;52.480;13.354;2023-03-11T10:12:34;8.00;;;5.97;;
5026;SDS011;2532;52.480;13.354;2023-03-11T10:15:14;10.57;;;6.80;;
5026;SDS011;2532;52.480;13.354;2023-03-11T10:17:51;8.20;;;6.97;;
5026;SDS011;2532;52.480;13.354;2023-03-11T10:20:31;9.73;;;6.70;;
5026;SDS011;2532;52.480;13.354;2023-03-11T10:23:14;9.17;;;6.80;;
5026;SDS011;2532;52.480;13.354;2023-03-11T10:25:52;9.83;;;7.23;;
5026;SDS011;2532;52.480;13.354;2023-03-11T10:28:24;10.20;;;6.90;;
5026;SDS011;2532;52.480;13.354;2023-03-11T10:30:57;10.63;;;6.93;;
5026;SDS011;2532;52.480;13.354;2023-03-11T10:33:29;10.80;;;7.73;;
5026;SDS011;2532;52.480;13.354;2023-03-11T10:36:03;13.57;;;8.30;;
5026;SDS011;2532;52.480;13.354;2023-03-11T10:38:33;11.20;;;8.63;;
5026;SDS011;2532;52.480;13.354;2023-03-11T10:41:04;13.77;;;8.20;;
5026;SDS011;2532;52.480;13.354;2023-03-11T10:43:38;12.03;;;8.20;;
5026;SDS011;2532;52.480;13.354;2023-03-11T10:46:12;11.40;;;8.70;;
5026;SDS011;2532;52.480;13.354;2023-03-11T10:48:44;11.73;;;8.10;;
5026;SDS011;2532;52.480;13.354;2023-03-11T10:51:11;11.80;;;8.10;;
5026;SDS011;2532;52.480;13.354;2023-03-11T10:53:48;11.03;;;7.37;;
5026;SDS011;2532;52.480;13.354;2023-03-11T10:56:24;10.90;;;8.30;;
5026;SDS011;2532;52.480;13.354;2023-03-11T10:58:56;12.87;;;9.13;;
5026;SDS011;2532;52.480;13.354;2023-03-11T11:01:24;10.43;;;8.27;;
5026;SDS011;2532;52.480;13.354;2023-03-11T11:03:54;10.40;;;8.23;;
5026;SDS011;2532;52.480;13.354;2023-03-11T11:06:24;10.80;;;7.30;;
5026;SDS011;2532;52.480;13.354;2023-03-11T11:09:12;13.33;;;8.80;;
5026;SDS011;2532;52.480;13.354;2023-03-11T11:11:40;11.13;;;7.80;;
5026;SDS011;2532;52.480;13.354;2023-03-11T11:14:08;13.80;;;8.40;;
5026;SDS011;2532;52.480;13.354;2023-03-11T11:16:35;13.03;;;8.70;;
5026;SDS011;2532;52.480;13.354;2023-03-11T11:19:03;12.30;;;9.60;;
5026;SDS011;2532;52.480;13.354;2023-03-11T11:21:36;15.10;;;9.10;;
5026;SDS011;2532;52.480;13.354;2023-03-11T11:24:11;11.97;;;8.77;;
5026;SDS011;2532;52.480;13.354;2023-03-11T11:26:43;13.83;;;8.70;;
5026;SDS011;2532;52.480;13.354;2023-03-11T11:29:29;12.60;;;8.87;;
5026;SDS011;2532;52.480;13.354;2023-03-11T11:32:09;8.37;;;7.27;;
5026;SDS011;2532;52.480;13.354;2023-03-11T11:34:52;12.13;;;9.50;;
5026;SDS011;2532;52.480;13.354;2023-03-11T11:37:23;15.30;;;8.70;;
5026;SDS011;2532;52.480;13.354;2023-03-11T11:39:58;13.20;;;8.20;;
5026;SDS011;2532;52.480;13.354;2023-03-11T11:42:34;15.57;;;9.77;;
5026;SDS011;2532;52.480;13.354;2023-03-11T11:45:04;15.13;;;9.47;;
5026;SDS011;2532;52.480;13.354;2023-03-11T11:47:40;11.70;;;9.17;;
5026;SDS011;2532;52.480;13.354;2023-03-11T11:50:13;12.03;;;9.03;;
5026;SDS011;2532;52.480;13.354;2023-03-11T11:52:46;14.40;;;8.10;;
5026;SDS011;2532;52.480;13.354;2023-03-11T11:55:19;12.77;;;9.03;;
5026;SDS011;2532;52.480;13.354;2023-03-11T11:57:49;17.20;;;9.93;;
5026;SDS011;2532;52.480;13.354;2023-03-11T12:00:18;16.50;;;9.50;;
5026;SDS011;2532;52.480;13.354;2023-03-11T12:02:55;12.93;;;9.03;;
5026;SDS011;2532;52.480;13.354;2023-03-11T12:05:31;15.73;;;8.93;;
5026;SDS011;2532;52.480;13.354;2023-03-11T12:08:06;12.90;;;10.00;;
5026;SDS011;2532;52.480;13.354;2023-03-11T12:10:41;11.63;;;9.27;;
5026;SDS011;2532;52.480;13.354;2023-03-11T12:13:19;11.23;;;8.83;;
5026;SDS011;2532;52.480;13.354;2023-03-11T12:15:56;12.77;;;8.40;;
5026;SDS011;2532;52.480;13.354;2023-03-11T12:18:31;14.63;;;8.60;;
5026;SDS011;2532;52.480;13.354;2023-03-11T12:21:06;17.83;;;10.60;;
5026;SDS011;2532;52.480;13.354;2023-03-11T12:23:49;11.67;;;9.43;;
5026;SDS011;2532;52.480;13.354;2023-03-11T12:26:29;15.20;;;9.33;;
5026;SDS011;2532;52.480;13.354;2023-03-11T12:29:01;11.83;;;8.90;;
5026;SDS011;2532;52.480;13.354;2023-03-11T12:31:34;12.87;;;9.07;;
5026;SDS011;2532;52.480;13.354;2023-03-11T12:34:04;12.03;;;7.83;;
5026;SDS011;2532;52.480;13.354;2023-03-11T12:36:35;9.77;;;8.10;;
5026;SDS011;2532;52.480;13.354;2023-03-11T12:39:05;11.50;;;8.23;;
5026;SDS011;2532;52.480;13.354;2023-03-11T12:41:35;12.60;;;9.10;;
5026;SDS011;2532;52.480;13.354;2023-03-11T12:49:45;11.20;;;8.67;;
5026;SDS011;2532;52.480;13.354;2023-03-11T12:52:17;10.20;;;7.20;;
5026;SDS011;2532;52.480;13.354;2023-03-11T12:54:47;10.70;;;8.10;;
5026;SDS011;2532;52.480;13.354;2023-03-11T12:57:39;21.97;;;9.60;;
5026;SDS011;2532;52.480;13.354;2023-03-11T13:00:20;12.47;;;8.60;;
5026;SDS011;2532;52.480;13.354;2023-03-11T13:03:04;9.70;;;7.73;;
5026;SDS011;2532;52.480;13.354;2023-03-11T13:05:53;10.67;;;7.20;;
5026;SDS011;2532;52.480;13.354;2023-03-11T13:08:24;14.27;;;8.53;;
5026;SDS011;2532;52.480;13.354;2023-03-11T13:10:53;11.97;;;7.40;;
5026;SDS011;2532;52.480;13.354;2023-03-11T13:25:30;9.07;;;7.00;;
5026;SDS011;2532;52.480;13.354;2023-03-11T13:30:58;10.53;;;6.87;;
5026;SDS011;2532;52.480;13.354;2023-03-11T13:33:44;9.30;;;7.07;;
5026;SDS011;2532;52.480;13.354;2023-03-11T13:36:24;8.10;;;6.40;;
5026;SDS011;2532;52.480;13.354;2023-03-11T13:39:17;9.20;;;6.73;;
5026;SDS011;2532;52.480;13.354;2023-03-11T13:42:01;9.30;;;6.43;;
5026;SDS011;2532;52.480;13.354;2023-03-11T13:44:31;9.30;;;5.80;;
5026;SDS011;2532;52.480;13.354;2023-03-11T13:47:04;9.93;;;7.50;;
5026;SDS011;2532;52.480;13.354;2023-03-11T13:49:37;12.30;;;7.23;;
5026;SDS011;2532;52.480;13.354;2023-03-11T13:52:08;7.93;;;5.87;;
5026;SDS011;2532;52.480;13.354;2023-03-11T13:54:42;8.10;;;5.90;;
5026;SDS011;2532;52.480;13.354;2023-03-11T13:57:23;8.43;;;5.40;;
5026;SDS011;2532;52.480;13.354;2023-03-11T13:59:53;10.13;;;6.70;;
5026;SDS011;2532;52.480;13.354;2023-03-11T14:02:23;5.93;;;4.70;;
5026;SDS011;2532;52.480;13.354;2023-03-11T14:04:52;6.70;;;5.00;;
5026;SDS011;2532;52.480;13.354;2023-03-11T14:07:24;5.80;;;5.03;;
5026;SDS011;2532;52.480;13.354;2023-03-11T14:12:43;8.33;;;5.43;;
5026;SDS011;2532;52.480;13.354;2023-03-11T14:15:11;6.57;;;5.13;;
5026;SDS011;2532;52.480;13.354;2023-03-11T14:17:43;9.63;;;5.97;;
5026;SDS011;2532;52.480;13.354;2023-03-11T14:20:11;8.43;;;5.97;;
5026;SDS011;2532;52.480;13.354;2023-03-11T14:22:42;13.40;;;7.00;;
5026;SDS011;2532;52.480;13.354;2023-03-11T14:25:14;8.33;;;6.40;;
5026;SDS011;2532;52.480;13.354;2023-03-11T14:27:45;6.80;;;5.47;;
5026;SDS011;2532;52.480;13.354;2023-03-11T14:30:22;5.80;;;4.80;;
5026;SDS011;2532;52.480;13.354;2023-03-11T14:32:56;6.30;;;5.33;;
5026;SDS011;2532;52.480;13.354;2023-03-11T14:35:25;7.03;;;5.20;;
5026;SDS011;2532;52.480;13.354;2023-03-11T14:37:53;7.43;;;5.70;;
5026;SDS011;2532;52.480;13.354;2023-03-11T14:40:21;6.80;;;5.47;;
5026;SDS011;2532;52.480;13.354;2023-03-11T14:42:50;7.13;;;5.40;;
5026;SDS011;2532;52.480;13.354;2023-03-11T14:45:21;7.70;;;5.30;;
5026;SDS011;2532;52.480;13.354;2023-03-11T14:47:52;8.80;;;6.13;;
5026;SDS011;2532;52.480;13.354;2023-03-11T14:50:25;6.17;;;4.97;;
5026;SDS011;2532;52.480;13.354;2023-03-11T14:52:55;6.80;;;5.60;;
5026;SDS011;2532;52.480;13.354;2023-03-11T14:55:27;8.63;;;6.00;;
5026;SDS011;2532;52.480;13.354;2023-03-11T14:57:59;9.73;;;5.83;;
5026;SDS011;2532;52.480;13.354;2023-03-11T15:00:32;8.33;;;5.43;;
5026;SDS011;2532;52.480;13.354;2023-03-11T15:03:05;6.57;;;4.93;;
5026;SDS011;2532;52.480;13.354;2023-03-11T15:05:43;5.20;;;4.50;;
5026;SDS011;2532;52.480;13.354;2023-03-11T15:08:14;5.93;;;4.40;;
5026;SDS011;2532;52.480;13.354;2023-03-11T15:11:01;6.50;;;4.13;;
5026;SDS011;2532;52.480;13.354;2023-03-11T15:13:33;5.23;;;4.37;;
5026;SDS011;2532;52.480;13.354;2023-03-11T15:16:01;6.27;;;4.83;;
5026;SDS011;2532;52.480;13.354;2023-03-11T15:18:33;5.90;;;4.10;;
5026;SDS011;2532;52.480;13.354;2023-03-11T15:21:03;5.37;;;4.53;;
5026;SDS011;2532;52.480;13.354;2023-03-11T15:23:36;7.20;;;4.40;;
5026;SDS011;2532;52.480;13.354;2023-03-11T15:26:04;4.83;;;4.10;;
5026;SDS011;2532;52.480;13.354;2023-03-11T15:28:32;5.53;;;4.40;;
5026;SDS011;2532;52.480;13.354;2023-03-11T15:31:12;5.83;;;4.17;;
5026;SDS011;2532;52.480;13.354;2023-03-11T15:33:42;5.93;;;3.93;;
5026;SDS011;2532;52.480;13.354;2023-03-11T15:36:29;6.87;;;5.03;;
5026;SDS011;2532;52.480;13.354;2023-03-11T15:39:10;5.07;;;3.70;;
5026;SDS011;2532;52.480;13.354;2023-03-11T15:41:40;5.97;;;4.03;;
5026;SDS011;2532;52.480;13.354;2023-03-11T15:44:16;5.10;;;4.20;;
5026;SDS011;2532;52.480;13.354;2023-03-11T15:46:49;5.93;;;4.10;;